createdAt,value
2023-04-22T00:02:17.032Z,88.10
2023-04-22T00:05:20.693Z,88.70
2023-04-22T00:08:25.547Z,89.50
2023-04-22T00:11:28.358Z,89.70
2023-04-22T00:14:31.155Z,89.50
2023-04-22T00:17:34.519Z,89.60
2023-04-22T00:20:37.481Z,90.00
2023-04-22T00:23:41.764Z,89.90
2023-04-22T00:26:44.615Z,90.20
2023-04-22T00:29:47.409Z,90.30
2023-04-22T00:32:50.313Z,90.30
2023-04-22T00:35:54.624Z,89.80
2023-04-22T00:38:58.904Z,90.40
2023-04-22T00:42:03.045Z,90.70
2023-04-22T00:45:10.999Z,90.90
2023-04-22T00:48:14.882Z,91.20
2023-04-22T00:51:17.712Z,91.20
2023-04-22T00:54:21.832Z,91.10
2023-04-22T00:57:25.076Z,91.40
2023-04-22T01:00:29.015Z,91.60
2023-04-22T01:03:33.755Z,91.70
2023-04-22T01:06:37.830Z,91.90
2023-04-22T01:09:42.684Z,92.00
2023-04-22T01:12:45.701Z,92.20
2023-04-22T01:15:48.713Z,92.70
2023-04-22T01:18:52.996Z,92.20
2023-04-22T01:21:57.064Z,91.90
2023-04-22T01:25:01.204Z,92.00
2023-04-22T01:28:04.658Z,91.90
2023-04-22T01:31:07.510Z,91.80
2023-04-22T01:34:12.028Z,91.60
2023-04-22T01:37:14.833Z,91.60
2023-04-22T01:40:22.653Z,91.90
2023-04-22T01:43:25.933Z,92.20
2023-04-22T01:46:28.832Z,92.50
2023-04-22T01:49:31.699Z,92.50
2023-04-22T01:52:36.137Z,92.40
2023-04-22T01:55:40.531Z,92.00
2023-04-22T01:58:43.594Z,92.40
2023-04-22T02:01:46.355Z,92.50
2023-04-22T02:04:49.199Z,92.40
2023-04-22T02:07:53.199Z,92.70
2023-04-22T02:10:58.188Z,92.80
2023-04-22T02:14:00.968Z,92.40
2023-04-22T02:17:03.806Z,92.30
2023-04-22T02:20:07.814Z,92.50
2023-04-22T02:23:11.275Z,92.60
2023-04-22T02:26:15.379Z,92.70
2023-04-22T02:29:18.179Z,92.70
2023-04-22T02:32:20.969Z,92.40
2023-04-22T02:35:23.803Z,92.40
2023-04-22T02:38:26.620Z,92.60
2023-04-22T02:41:30.904Z,92.60
2023-04-22T02:44:33.706Z,92.40
2023-04-22T02:47:36.547Z,92.60
2023-04-22T02:50:39.338Z,92.70
2023-04-22T02:53:42.289Z,92.90
2023-04-22T02:56:46.393Z,93.10
2023-04-22T02:59:49.160Z,93.40
2023-04-22T03:02:52.120Z,93.30
2023-04-22T03:05:55.456Z,93.20
2023-04-22T03:08:58.220Z,92.90
2023-04-22T03:12:02.715Z,92.80
2023-04-22T03:15:06.398Z,92.80
2023-04-22T03:18:09.462Z,92.90
2023-04-22T03:21:12.242Z,92.80
2023-04-22T03:24:15.004Z,92.80
2023-04-22T03:27:19.157Z,92.60
2023-04-22T03:30:22.007Z,92.90
2023-04-22T03:33:24.792Z,92.80
2023-04-22T03:36:28.499Z,92.80
2023-04-22T03:39:31.286Z,92.80
2023-04-22T03:42:35.483Z,92.80
2023-04-22T03:45:38.438Z,93.20
2023-04-22T03:48:41.267Z,93.30
2023-04-22T03:51:44.076Z,93.30
2023-04-22T03:54:46.896Z,93.10
2023-04-22T03:57:50.999Z,93.10
2023-04-22T04:00:53.797Z,93.00
2023-04-22T04:03:56.851Z,93.10
2023-04-22T04:07:00.004Z,93.30
2023-04-22T04:10:02.835Z,93.40
2023-04-22T04:13:06.943Z,93.50
2023-04-22T04:16:10.175Z,93.70
2023-04-22T04:19:13.042Z,93.50
2023-04-22T04:22:15.780Z,93.50
2023-04-22T04:25:21.118Z,93.60
2023-04-22T04:28:25.486Z,93.60
2023-04-22T04:31:28.346Z,93.50
2023-04-22T04:34:31.767Z,93.60
2023-04-22T04:37:34.513Z,93.90
2023-04-22T04:40:37.497Z,93.90
2023-04-22T04:43:41.609Z,94.10
2023-04-22T04:46:46.655Z,94.30
2023-04-22T04:49:50.175Z,94.00
2023-04-22T04:52:53.068Z,94.80
2023-04-22T04:55:55.865Z,95.10
2023-04-22T04:58:59.988Z,95.20
2023-04-22T05:02:02.975Z,95.80
2023-04-22T05:05:06.675Z,95.60
2023-04-22T05:08:09.436Z,95.50
2023-04-22T05:11:12.213Z,95.50
2023-04-22T05:14:16.313Z,95.60
2023-04-22T05:17:19.337Z,95.60
2023-04-22T05:20:22.169Z,95.90
2023-04-22T05:23:25.036Z,96.30
2023-04-22T05:26:27.895Z,96.20
2023-04-22T05:29:32.424Z,96.50
2023-04-22T05:32:35.307Z,96.50
2023-04-22T05:35:38.168Z,96.90
2023-04-22T05:38:40.924Z,96.90
2023-04-22T05:41:44.847Z,97.00
2023-04-22T05:44:51.104Z,97.00
2023-04-22T05:47:53.995Z,96.70
2023-04-22T05:50:56.786Z,96.80
2023-04-22T05:53:59.518Z,97.00
2023-04-22T05:57:02.425Z,97.00
2023-04-22T06:00:07.875Z,97.40
2023-04-22T06:03:10.766Z,97.40
2023-04-22T06:06:13.962Z,97.10
2023-04-22T06:09:16.792Z,96.40
2023-04-22T06:12:20.232Z,95.90
2023-04-22T06:15:24.332Z,95.10
2023-04-22T06:18:28.263Z,95.10
2023-04-22T06:21:32.544Z,94.90
2023-04-22T06:24:35.329Z,95.20
2023-04-22T06:27:38.306Z,94.60
2023-04-22T06:30:42.428Z,94.00
2023-04-22T06:33:45.214Z,95.20
2023-04-22T06:36:47.981Z,93.80
2023-04-22T06:39:50.737Z,92.50
2023-04-22T06:42:53.528Z,91.50
2023-04-22T06:45:57.668Z,95.60
2023-04-22T06:49:00.496Z,94.40
2023-04-22T06:52:03.330Z,93.30
2023-04-22T06:55:06.613Z,91.30
2023-04-22T06:58:09.423Z,89.00
2023-04-22T07:01:13.514Z,86.30
2023-04-22T07:04:16.309Z,87.50
2023-04-22T07:07:19.935Z,87.90
2023-04-22T07:10:22.919Z,86.70
2023-04-22T07:13:27.124Z,86.10
2023-04-22T07:16:31.514Z,84.90
2023-04-22T07:19:35.336Z,84.30
2023-04-22T07:22:38.220Z,86.80
2023-04-22T07:25:40.970Z,88.40
2023-04-22T07:28:43.734Z,84.00
2023-04-22T07:31:47.887Z,85.40
2023-04-22T07:34:50.690Z,82.50
2023-04-22T07:37:53.508Z,79.70
2023-04-22T07:40:56.284Z,82.00
2023-04-22T07:43:59.031Z,83.80
2023-04-22T07:47:03.112Z,82.70
2023-04-22T07:50:07.014Z,80.30
2023-04-22T07:53:10.943Z,80.20
2023-04-22T07:56:14.516Z,81.30
2023-04-22T07:59:17.273Z,80.90
2023-04-22T08:02:22.028Z,79.40
2023-04-22T08:05:25.051Z,81.80
2023-04-22T08:08:27.987Z,78.80
2023-04-22T08:11:30.767Z,79.70
2023-04-22T08:14:33.518Z,78.90
2023-04-22T08:17:37.755Z,84.80
2023-04-22T08:20:40.636Z,76.40
2023-04-22T08:23:43.412Z,74.30
2023-04-22T08:26:46.216Z,75.60
2023-04-22T08:29:48.987Z,78.50
2023-04-22T08:32:53.992Z,73.70
2023-04-22T08:35:56.927Z,77.10
2023-04-22T08:38:59.869Z,77.40
2023-04-22T08:42:02.942Z,76.50
2023-04-22T08:45:06.735Z,74.80
2023-04-22T08:48:12.474Z,73.40
2023-04-22T08:51:17.339Z,75.00
2023-04-22T08:54:20.176Z,71.70
2023-04-22T08:57:23.177Z,70.20
2023-04-22T09:00:25.933Z,71.50
2023-04-22T09:03:30.779Z,69.40
2023-04-22T09:06:34.414Z,68.30
2023-04-22T09:09:37.687Z,65.10
2023-04-22T09:12:42.302Z,69.30
2023-04-22T09:15:45.231Z,69.20
2023-04-22T09:18:49.510Z,63.20
2023-04-22T09:21:54.315Z,60.70
2023-04-22T09:24:57.482Z,60.10
2023-04-22T09:28:00.800Z,58.90
2023-04-22T09:31:04.247Z,64.10
2023-04-22T09:34:08.747Z,65.20
2023-04-22T09:37:13.501Z,65.00
2023-04-22T09:40:17.237Z,63.90
2023-04-22T09:43:20.623Z,63.90
2023-04-22T09:46:24.394Z,64.90
2023-04-22T09:49:29.735Z,62.00
2023-04-22T09:52:34.318Z,63.00
2023-04-22T09:55:41.376Z,60.70
2023-04-22T09:58:44.573Z,61.90
2023-04-22T10:01:47.399Z,60.40
2023-04-22T10:04:51.642Z,59.90
2023-04-22T10:07:54.474Z,62.00
2023-04-22T10:10:57.330Z,59.60
2023-04-22T10:14:01.010Z,60.20
2023-04-22T10:17:05.048Z,59.70
2023-04-22T10:20:14.171Z,59.20
2023-04-22T10:23:20.289Z,57.80
2023-04-22T10:26:43.340Z,58.50
2023-04-22T10:29:46.086Z,60.60
2023-04-22T10:32:49.049Z,59.10
2023-04-22T10:39:22.116Z,59.40
2023-04-22T10:42:29.346Z,60.90
2023-04-22T10:45:33.698Z,58.60
2023-04-22T10:48:49.000Z,59.30
2023-04-22T10:51:53.569Z,59.60
2023-04-22T10:55:01.566Z,59.20
2023-04-22T10:58:04.560Z,57.20
2023-04-22T11:01:16.304Z,56.60
2023-04-22T11:04:23.791Z,54.70
2023-04-22T11:07:35.290Z,56.50
2023-04-22T11:10:44.709Z,55.00
2023-04-22T11:13:50.573Z,54.70
2023-04-22T11:16:53.867Z,55.60
2023-04-22T11:19:58.252Z,55.60
2023-04-22T11:23:01.189Z,54.50
2023-04-22T11:26:07.209Z,53.40
2023-04-22T11:29:09.986Z,52.50
2023-04-22T11:32:13.270Z,53.80
2023-04-22T11:35:18.735Z,56.40
2023-04-22T11:38:21.472Z,53.70
2023-04-22T11:41:25.909Z,54.00
2023-04-22T11:44:28.688Z,52.80
2023-04-22T11:47:31.509Z,53.10
2023-04-22T11:50:36.245Z,51.30
2023-04-22T11:53:41.096Z,53.40
2023-04-22T11:56:45.346Z,53.00
2023-04-22T11:59:59.269Z,51.60
2023-04-22T12:03:04.053Z,50.80
2023-04-22T12:06:07.279Z,51.60
2023-04-22T12:09:11.980Z,48.60
2023-04-22T12:12:17.545Z,49.90
2023-04-22T12:15:20.350Z,51.40
2023-04-22T12:18:30.716Z,49.00
2023-04-22T12:21:33.681Z,48.40
2023-04-22T12:24:36.494Z,50.00
2023-04-22T12:27:40.591Z,51.50
2023-04-22T12:30:43.465Z,51.40
2023-04-22T12:33:47.171Z,51.00
2023-04-22T12:36:50.309Z,51.50
2023-04-22T12:39:53.092Z,48.60
2023-04-22T12:42:57.372Z,46.90
2023-04-22T12:46:00.525Z,46.50
2023-04-22T12:49:03.398Z,48.10
2023-04-22T12:52:07.490Z,47.10
2023-04-22T12:55:10.531Z,49.20
2023-04-22T12:58:14.703Z,45.30
2023-04-22T13:01:17.535Z,47.90
2023-04-22T13:04:20.862Z,47.30
2023-04-22T13:07:23.716Z,44.70
2023-04-22T13:10:28.192Z,47.00
2023-04-22T13:13:32.308Z,47.50
2023-04-22T13:16:35.229Z,46.00
2023-04-22T13:19:38.244Z,48.10
2023-04-22T13:22:41.610Z,45.60
2023-04-22T13:25:44.395Z,45.20
2023-04-22T13:28:48.607Z,47.20
2023-04-22T13:31:51.436Z,47.50
2023-04-22T13:34:54.229Z,46.00
2023-04-22T13:37:57.368Z,45.80
2023-04-22T13:41:02.006Z,46.30
2023-04-22T13:44:07.458Z,44.10
2023-04-22T13:47:10.463Z,45.70
2023-04-22T13:50:13.341Z,44.60
2023-04-22T13:53:16.181Z,41.50
2023-04-22T13:56:18.949Z,44.20
2023-04-22T13:59:23.080Z,46.20
2023-04-22T14:02:26.082Z,47.50
2023-04-22T14:05:28.953Z,46.00
2023-04-22T14:08:31.752Z,45.70
2023-04-22T14:11:34.674Z,43.60
2023-04-22T14:14:38.846Z,46.00
2023-04-22T14:17:41.855Z,45.20
2023-04-22T14:20:45.124Z,43.90
2023-04-22T14:23:47.938Z,44.70
2023-04-22T14:26:51.180Z,43.20
2023-04-22T14:29:55.323Z,44.30
2023-04-22T14:32:58.571Z,45.00
2023-04-22T14:36:01.355Z,43.60
2023-04-22T14:39:04.190Z,45.80
2023-04-22T14:42:07.107Z,42.80
2023-04-22T14:45:14.489Z,45.30
2023-04-22T14:48:17.238Z,44.50
2023-04-22T14:51:20.022Z,45.80
2023-04-22T14:54:22.828Z,45.20
2023-04-22T14:57:25.582Z,42.30
2023-04-22T15:00:30.799Z,44.30
2023-04-22T15:03:35.148Z,45.50
2023-04-22T15:06:38.250Z,45.00
2023-04-22T15:09:41.344Z,44.90
2023-04-22T15:12:44.506Z,44.50
2023-04-22T15:15:48.719Z,45.60
2023-04-22T15:18:51.545Z,46.90
2023-04-22T15:21:54.352Z,47.70
2023-04-22T15:24:57.127Z,47.10
2023-04-22T15:27:59.931Z,47.20
2023-04-22T15:31:04.271Z,45.70
2023-04-22T15:34:07.120Z,47.30
2023-04-22T15:37:10.967Z,46.80
2023-04-22T15:40:15.235Z,46.50
2023-04-22T15:43:17.976Z,46.50
2023-04-22T15:46:22.850Z,45.70
2023-04-22T15:49:25.837Z,45.70
2023-04-22T15:52:28.647Z,46.00
2023-04-22T15:55:31.421Z,47.20
2023-04-22T15:58:34.748Z,46.10
2023-04-22T16:01:40.670Z,47.30
2023-04-22T16:04:43.726Z,48.90
2023-04-22T16:07:46.660Z,48.40
2023-04-22T16:10:49.492Z,48.10
2023-04-22T16:13:52.259Z,47.00
2023-04-22T16:16:56.524Z,48.10
2023-04-22T16:19:59.440Z,48.50
2023-04-22T16:23:02.196Z,50.00
2023-04-22T16:26:05.770Z,47.30
2023-04-22T16:29:08.579Z,48.80
2023-04-22T16:32:12.846Z,47.70
2023-04-22T16:35:15.793Z,49.90
2023-04-22T16:38:18.595Z,49.10
2023-04-22T16:41:21.627Z,50.60
2023-04-22T16:44:24.380Z,50.50
2023-04-22T16:47:28.612Z,51.40
2023-04-22T16:50:31.431Z,49.80
2023-04-22T16:53:34.217Z,48.10
2023-04-22T16:56:37.530Z,50.70
2023-04-22T16:59:40.553Z,51.20
2023-04-22T17:02:45.395Z,50.80
2023-04-22T17:05:48.432Z,52.20
2023-04-22T17:08:52.491Z,51.40
2023-04-22T17:11:56.200Z,52.10
2023-04-22T17:14:58.996Z,52.80
2023-04-22T17:18:05.711Z,49.70
2023-04-22T17:21:08.545Z,52.10
2023-04-22T17:24:11.364Z,51.50
2023-04-22T17:27:15.725Z,50.50
2023-04-22T17:30:18.507Z,52.50
2023-04-22T17:33:22.664Z,51.40
2023-04-22T17:36:25.473Z,51.40
2023-04-22T17:39:28.249Z,52.80
2023-04-22T17:42:44.733Z,53.40
2023-04-22T17:45:49.014Z,53.60
2023-04-22T17:48:53.117Z,57.30
2023-04-22T17:51:55.984Z,55.90
2023-04-22T17:54:59.942Z,56.50
2023-04-22T17:58:02.996Z,56.40
2023-04-22T18:01:07.249Z,56.70
2023-04-22T18:04:11.465Z,56.90
2023-04-22T18:07:14.323Z,55.40
2023-04-22T18:10:17.100Z,56.80
2023-04-22T18:13:19.988Z,57.90
2023-04-22T18:16:22.805Z,56.50
2023-04-22T18:19:27.031Z,56.50
2023-04-22T18:22:29.835Z,58.50
2023-04-22T18:25:32.663Z,57.80
2023-04-22T18:28:35.398Z,58.70
2023-04-22T18:31:38.229Z,59.60
2023-04-22T18:34:42.820Z,59.50
2023-04-22T18:37:46.002Z,60.60
2023-04-22T18:40:48.784Z,61.80
2023-04-22T18:43:51.582Z,62.60
2023-04-22T18:46:54.833Z,62.60
2023-04-22T18:49:59.319Z,61.40
2023-04-22T18:53:02.160Z,62.60
2023-04-22T18:56:05.040Z,63.90
2023-04-22T18:59:07.868Z,66.40
2023-04-22T19:02:13.358Z,64.60
2023-04-22T19:05:18.026Z,65.70
2023-04-22T19:08:20.835Z,63.70
2023-04-22T19:11:24.740Z,65.00
2023-04-22T19:14:27.626Z,67.00
2023-04-22T19:17:30.526Z,64.50
2023-04-22T19:20:34.695Z,61.30
2023-04-22T19:23:38.029Z,60.80
2023-04-22T19:26:41.005Z,59.80
2023-04-22T19:29:50.939Z,60.30
2023-04-22T19:32:54.680Z,61.90
2023-04-22T19:35:58.812Z,65.70
2023-04-22T19:39:02.080Z,65.50
2023-04-22T19:42:05.399Z,66.40
2023-04-22T19:45:09.974Z,67.40
2023-04-22T19:48:13.354Z,70.30
2023-04-22T19:51:17.864Z,68.00
2023-04-22T19:54:22.509Z,67.70
2023-04-22T19:57:25.761Z,68.70
2023-04-22T20:00:28.786Z,64.60
2023-04-22T20:03:32.947Z,63.00
2023-04-22T20:06:37.545Z,61.70
2023-04-22T20:09:41.260Z,61.80
2023-04-22T20:12:45.341Z,60.40
2023-04-22T20:15:48.540Z,59.80
2023-04-22T20:18:52.187Z,59.10
2023-04-22T20:21:58.703Z,59.10
2023-04-22T20:25:03.606Z,60.10
2023-04-22T20:28:07.250Z,59.40
2023-04-22T20:31:10.228Z,59.40
2023-04-22T20:34:13.139Z,59.50
2023-04-22T20:37:21.128Z,60.10
2023-04-22T20:40:24.776Z,60.30
2023-04-22T20:43:27.837Z,60.40
2023-04-22T20:46:30.761Z,60.70
2023-04-22T20:49:33.658Z,61.60
2023-04-22T20:52:37.877Z,61.40
2023-04-22T20:55:40.639Z,62.00
2023-04-22T20:58:43.423Z,62.40
2023-04-22T21:01:48.171Z,62.10
2023-04-22T21:04:51.399Z,62.50
2023-04-22T21:07:56.306Z,62.30
2023-04-22T21:10:59.665Z,62.60
2023-04-22T21:14:03.286Z,62.70
2023-04-22T21:17:14.212Z,63.10
2023-04-22T21:20:17.548Z,63.30
2023-04-22T21:23:23.877Z,63.30
2023-04-22T21:26:28.599Z,63.40
2023-04-22T21:29:32.554Z,64.00
2023-04-22T21:32:40.370Z,65.30
2023-04-22T21:35:43.238Z,67.40
2023-04-22T21:38:47.358Z,67.50
2023-04-22T21:41:50.143Z,66.90
2023-04-22T21:44:53.002Z,67.60
2023-04-22T21:47:55.822Z,68.70
2023-04-22T21:50:58.722Z,68.80
2023-04-22T21:54:02.904Z,68.20
2023-04-22T21:57:05.708Z,68.80
2023-04-22T22:00:15.613Z,69.20
2023-04-22T22:03:18.592Z,69.40
2023-04-22T22:06:21.499Z,68.60
2023-04-22T22:09:26.471Z,69.50
2023-04-22T22:12:29.232Z,70.40
2023-04-22T22:15:32.081Z,69.90
2023-04-22T22:18:35.598Z,71.00
2023-04-22T22:21:38.641Z,73.00
2023-04-22T22:24:43.047Z,70.10
2023-04-22T22:27:47.098Z,73.20
2023-04-22T22:30:50.058Z,70.20
2023-04-22T22:33:52.810Z,70.00
2023-04-22T22:36:55.664Z,70.90
2023-04-22T22:40:00.318Z,70.60
2023-04-22T22:43:03.070Z,72.40
2023-04-22T22:46:05.948Z,74.50
2023-04-22T22:49:08.910Z,75.50
2023-04-22T22:52:11.901Z,73.90
2023-04-22T22:55:16.015Z,74.00
2023-04-22T22:58:18.777Z,74.60
2023-04-22T23:01:21.637Z,75.80
2023-04-22T23:04:24.713Z,76.30
2023-04-22T23:07:27.743Z,75.50
2023-04-22T23:10:32.272Z,76.50
2023-04-22T23:13:35.031Z,76.30
2023-04-22T23:16:38.166Z,76.50
2023-04-22T23:19:42.287Z,77.10
2023-04-22T23:22:47.787Z,76.00
2023-04-22T23:25:52.490Z,75.70
2023-04-22T23:28:55.952Z,77.20
2023-04-22T23:32:03.385Z,75.70
2023-04-22T23:35:07.724Z,75.60
2023-04-22T23:38:11.939Z,75.80
2023-04-22T23:41:16.091Z,77.60
2023-04-22T23:44:18.899Z,77.90
2023-04-22T23:47:21.677Z,77.70
2023-04-22T23:50:24.500Z,78.50
2023-04-22T23:53:27.238Z,77.80
2023-04-22T23:56:31.970Z,78.80
2023-04-22T23:59:35.629Z,77.90
